VE-0143 weather

Muelle Seco Heliport
Puerto La Cruz, Anzoategui, Venezuela

Public forecast

Using degrees Celsius for public forecast. Weather courtesy of forecast.io.

Closest aviation weather report (METAR) to Muelle Seco Heliport

Closest report is General José Antonio Anzoategui International Airport, 8.3 nm (15.4 km) SSW. Retrieved 2020/02/27 00:02 UTC (1 hour ago):

SVBC 270002Z AUTO 02008KT NCD 29/20 Q1011

Closest aviation forecast (TAF) to Muelle Seco Heliport

Closest forecast is General José Antonio Anzoategui International Airport, 8.3 nm (15.4 km) SSW. Retrieved 2020-02-27 00:53 UTC (37 minutes ago):

TAF SVBC 262200Z 2700/2800 05008KT 9999 FEW020 TX33/19Z TN26/09Z BECMG 2700/2706 05002KT 9999 FEW016 SCT100